Buoy 46928

sailwx.info

Track history (hours):
 
Tides and Currents Weather Stations Pressure Air Temp Water Temp Dewpoint Dewpoint Depression Visibility Wind Speed Wind Dir Waves Ship Positions

Drifting buoy 46928

Last reported at 2015-Mar-27 14:30 UTC. Time now 2015-Mar-27 15:46 UTC.
Position N 53°41' W 140°13'.

Barometer 1011.1 mb
Water temperature 7.8 ° C

Date/timePositionNaut miles runAvg speedWind from/ knotsBaromVisibWave heightAir tempDewpointWater temp
2015-Mar-27 14:30N 53°41' W 140°13'0 0.3 1011.1 7.8
2015-Mar-27 13:30N 53°41' W 140°13'1 1.0 1011.3 7.8
2015-Mar-27 12:30N 53°40' W 140°12'2 1.9 1011.3 7.9
2015-Mar-27 11:30N 53°40' W 140°15'0 0.3 1011.6 7.9
2015-Mar-27 10:30N 53°40' W 140°15'0 0.0 1011.8 7.9
2015-Mar-27 09:30N 53°40' W 140°15'2 0.3 1011.8 7.9
2015-Mar-27 03:30N 53°40' W 140°18'1 0.6 1010.7 7.9
2015-Mar-27 02:30N 53°40' W 140°19'1 0.4 1010.4 7.9
2015-Mar-27 00:30N 53°39' W 140°20'1 0.4 1010.3 7.9
2015-Mar-26 22:30N 53°39' W 140°21'5 0.4 1010.0 7.8
2015-Mar-26 09:30N 53°37' W 140°29'1 0.1 1001.3 7.8
2015-Mar-26 04:30N 53°36' W 140°29'4 0.4 996.9 7.8
2015-Mar-25 19:30N 53°33' W 140°32'1 0.5 994.8 7.8
2015-Mar-25 17:30N 53°32' W 140°32'1 0.5 994.3 7.8
2015-Mar-25 15:30N 53°32' W 140°30'2 0.6 994.0 7.8
2015-Mar-25 11:30N 53°32' W 140°34'3 0.5 992.8 7.8
2015-Mar-25 05:30N 53°29' W 140°31'1 0.8 996.0 7.8
2015-Mar-25 04:30N 53°29' W 140°32'1 1.2 996.5 7.9
2015-Mar-25 03:30N 53°27' W 140°31'0 0.4 996.7 8.0
2015-Mar-25 02:30N 53°27' W 140°31'1 1.3 997.0 8.0
2015-Mar-25 01:30N 53°27' W 140°29'6 0.5 997.9 8.0
2015-Mar-24 12:30N 53°21' W 140°25'3 0.4 1008.4 8.2
2015-Mar-24 04:30N 53°19' W 140°29'0 0.1 1010.9 8.4
2015-Mar-24 03:30N 53°19' W 140°29'2 0.4 1010.8 8.4
2015-Mar-23 22:30N 53°17' W 140°28'1 0.4 1010.1 8.4
2015-Mar-23 19:30N 53°16' W 140°30'2 0.4 1009.7 8.3
2015-Mar-23 14:30N 53°14' W 140°32'2 0.2 1007.6 8.2
2015-Mar-23 05:30N 53°12' W 140°31'1 0.6 1005.7 8.2
2015-Mar-23 04:30N 53°12' W 140°32'3 0.7 1005.3 8.2
2015-Mar-23 00:30N 53°10' W 140°30'3 0.4 1004.5 8.3
2015-Mar-22 16:30N 53°08' W 140°25'6 0.6 1006.8 8.2
2015-Mar-22 06:30N 53°05' W 140°17'2 0.6 1007.7 8.2
2015-Mar-22 02:30N 53°05' W 140°13'3 0.2 1008.2 8.2
2015-Mar-21 13:30N 53°03' W 140°10'1 0.1 1009.0 8.0
2015-Mar-20 23:30N 53°04' W 140°11'1 0.3 1001.8 8.2
2015-Mar-20 19:30N 53°03' W 140°10'5 0.8 998.0 8.2
2015-Mar-20 13:30N 53°06' W 140°15'0 0.1 992.4 8.2
2015-Mar-20 10:30N 53°06' W 140°16'4 0.7 993.0 8.2
2015-Mar-20 04:30N 53°04' W 140°10'1 0.6 997.6 8.2
2015-Mar-20 02:30N 53°05' W 140°10'1 0.1 999.9 8.2
2015-Mar-19 15:30N 53°04' W 140°08'1 0.1 1003.7 8.2
2015-Mar-19 07:30N 53°04' W 140°08'0 0.4 1007.1 8.2
2015-Mar-19 06:30N 53°03' W 140°08'2 0.5 1007.5 8.2
2015-Mar-19 03:30N 53°03' W 140°06'1 0.5 1008.6 8.2
2015-Mar-19 01:30N 53°04' W 140°06'0 0.1 1008.8 8.3
2015-Mar-19 00:30N 53°04' W 140°06'1 0.7 1009.0 8.3
2015-Mar-18 23:30N 53°05' W 140°06'4 0.7 1009.0 8.3
2015-Mar-18 18:30N 53°06' W 140°12'1 0.6 1005.7 8.2
2015-Mar-18 17:30N 53°06' W 140°13'0 0.0 1004.1 8.2
2015-Mar-18 16:30N 53°06' W 140°13'1 0.3 1002.4 8.2
2015-Mar-18 14:30N 53°05' W 140°14'0 0.2 1000.1 8.2
2015-Mar-18 13:30N 53°05' W 140°14'1 0.3 999.2 8.2
2015-Mar-18 11:30N 53°04' W 140°14'0 0.0 1000.4 8.3
2015-Mar-18 10:30N 53°04' W 140°14'2 0.3 1001.6 8.3
2015-Mar-18 03:30N 53°02' W 140°13'2 1.2 1005.4 8.3
2015-Mar-18 01:30N 53°01' W 140°17'0 0.0 1005.7 8.3
2015-Mar-18 00:30N 53°01' W 140°17'1 1.1 1005.6 8.3
2015-Mar-17 23:30N 53°02' W 140°15'1 1.1 1005.1 8.3
2015-Mar-17 22:30N 53°01' W 140°17'0 0.0 1004.0 8.3
2015-Mar-17 21:30N 53°01' W 140°17'1 0.9 1003.0 8.3
2015-Mar-17 20:30N 53°01' W 140°18'2 0.5 1001.4 8.3
2015-Mar-17 17:30N 52°59' W 140°16'0 0.4 999.2 8.2
2015-Mar-17 16:30N 52°60' W 140°16'0 0.4 999.1 8.2
2015-Mar-17 15:30N 52°59' W 140°16'0 0.0 999.4 8.2
2015-Mar-17 14:30N 52°59' W 140°16'   1000.2 8.2
Track history (hours):
 
Tides and Currents Weather Stations Pressure Air Temp Water Temp Dewpoint Dewpoint Depression Visibility Wind Speed Wind Dir Waves Ship Positions

Drifting buoy 46928

Last reported at 2015-Mar-27 14:30 UTC. Time now 2015-Mar-27 15:46 UTC.
Position N 53°41' W 140°13'.

Barometer 1011.1 mb
Water temperature 7.8 ° C

Date/timePositionNaut miles runAvg speedWind from/ knotsBaromVisibWave heightAir tempDewpointWater temp
2015-Mar-27 14:30N 53°41' W 140°13'0 0.3 1011.1 7.8
2015-Mar-27 13:30N 53°41' W 140°13'1 1.0 1011.3 7.8
2015-Mar-27 12:30N 53°40' W 140°12'2 1.9 1011.3 7.9
2015-Mar-27 11:30N 53°40' W 140°15'0 0.3 1011.6 7.9
2015-Mar-27 10:30N 53°40' W 140°15'0 0.0 1011.8 7.9
2015-Mar-27 09:30N 53°40' W 140°15'2 0.3 1011.8 7.9
2015-Mar-27 03:30N 53°40' W 140°18'1 0.6 1010.7 7.9
2015-Mar-27 02:30N 53°40' W 140°19'1 0.4 1010.4 7.9
2015-Mar-27 00:30N 53°39' W 140°20'1 0.4 1010.3 7.9
2015-Mar-26 22:30N 53°39' W 140°21'5 0.4 1010.0 7.8
2015-Mar-26 09:30N 53°37' W 140°29'1 0.1 1001.3 7.8
2015-Mar-26 04:30N 53°36' W 140°29'4 0.4 996.9 7.8
2015-Mar-25 19:30N 53°33' W 140°32'1 0.5 994.8 7.8
2015-Mar-25 17:30N 53°32' W 140°32'1 0.5 994.3 7.8
2015-Mar-25 15:30N 53°32' W 140°30'2 0.6 994.0 7.8
2015-Mar-25 11:30N 53°32' W 140°34'3 0.5 992.8 7.8
2015-Mar-25 05:30N 53°29' W 140°31'1 0.8 996.0 7.8
2015-Mar-25 04:30N 53°29' W 140°32'1 1.2 996.5 7.9
2015-Mar-25 03:30N 53°27' W 140°31'0 0.4 996.7 8.0
2015-Mar-25 02:30N 53°27' W 140°31'1 1.3 997.0 8.0
2015-Mar-25 01:30N 53°27' W 140°29'6 0.5 997.9 8.0
2015-Mar-24 12:30N 53°21' W 140°25'3 0.4 1008.4 8.2
2015-Mar-24 04:30N 53°19' W 140°29'0 0.1 1010.9 8.4
2015-Mar-24 03:30N 53°19' W 140°29'2 0.4 1010.8 8.4
2015-Mar-23 22:30N 53°17' W 140°28'1 0.4 1010.1 8.4
2015-Mar-23 19:30N 53°16' W 140°30'2 0.4 1009.7 8.3
2015-Mar-23 14:30N 53°14' W 140°32'2 0.2 1007.6 8.2
2015-Mar-23 05:30N 53°12' W 140°31'1 0.6 1005.7 8.2
2015-Mar-23 04:30N 53°12' W 140°32'3 0.7 1005.3 8.2
2015-Mar-23 00:30N 53°10' W 140°30'3 0.4 1004.5 8.3
2015-Mar-22 16:30N 53°08' W 140°25'6 0.6 1006.8 8.2
2015-Mar-22 06:30N 53°05' W 140°17'2 0.6 1007.7 8.2
2015-Mar-22 02:30N 53°05' W 140°13'3 0.2 1008.2 8.2
2015-Mar-21 13:30N 53°03' W 140°10'1 0.1 1009.0 8.0
2015-Mar-20 23:30N 53°04' W 140°11'1 0.3 1001.8 8.2
2015-Mar-20 19:30N 53°03' W 140°10'5 0.8 998.0 8.2
2015-Mar-20 13:30N 53°06' W 140°15'0 0.1 992.4 8.2
2015-Mar-20 10:30N 53°06' W 140°16'4 0.7 993.0 8.2
2015-Mar-20 04:30N 53°04' W 140°10'1 0.6 997.6 8.2
2015-Mar-20 02:30N 53°05' W 140°10'1 0.1 999.9 8.2
2015-Mar-19 15:30N 53°04' W 140°08'1 0.1 1003.7 8.2
2015-Mar-19 07:30N 53°04' W 140°08'0 0.4 1007.1 8.2
2015-Mar-19 06:30N 53°03' W 140°08'2 0.5 1007.5 8.2
2015-Mar-19 03:30N 53°03' W 140°06'1 0.5 1008.6 8.2
2015-Mar-19 01:30N 53°04' W 140°06'0 0.1 1008.8 8.3
2015-Mar-19 00:30N 53°04' W 140°06'1 0.7 1009.0 8.3
2015-Mar-18 23:30N 53°05' W 140°06'4 0.7 1009.0 8.3
2015-Mar-18 18:30N 53°06' W 140°12'1 0.6 1005.7 8.2
2015-Mar-18 17:30N 53°06' W 140°13'0 0.0 1004.1 8.2
2015-Mar-18 16:30N 53°06' W 140°13'1 0.3 1002.4 8.2
2015-Mar-18 14:30N 53°05' W 140°14'0 0.2 1000.1 8.2
2015-Mar-18 13:30N 53°05' W 140°14'1 0.3 999.2 8.2
2015-Mar-18 11:30N 53°04' W 140°14'0 0.0 1000.4 8.3
2015-Mar-18 10:30N 53°04' W 140°14'2 0.3 1001.6 8.3
2015-Mar-18 03:30N 53°02' W 140°13'2 1.2 1005.4 8.3
2015-Mar-18 01:30N 53°01' W 140°17'0 0.0 1005.7 8.3
2015-Mar-18 00:30N 53°01' W 140°17'1 1.1 1005.6 8.3
2015-Mar-17 23:30N 53°02' W 140°15'1 1.1 1005.1 8.3
2015-Mar-17 22:30N 53°01' W 140°17'0 0.0 1004.0 8.3
2015-Mar-17 21:30N 53°01' W 140°17'1 0.9 1003.0 8.3
2015-Mar-17 20:30N 53°01' W 140°18'2 0.5 1001.4 8.3
2015-Mar-17 17:30N 52°59' W 140°16'0 0.4 999.2 8.2
2015-Mar-17 16:30N 52°60' W 140°16'0 0.4 999.1 8.2
2015-Mar-17 15:30N 52°59' W 140°16'0 0.0 999.4 8.2
2015-Mar-17 14:30N 52°59' W 140°16'   1000.2 8.2

Dump ship's entire track history